sensor_id;sensor_type;location;lat;lon;timestamp;pressure;altitude;pressure_sealevel;temperature;humidity
59329;BME280;45100;46.926;7.452;2023-05-01T00:01:06;95186.89;;;12.24;99.42
59329;BME280;45100;46.926;7.452;2023-05-01T00:03:36;95184.81;;;12.22;99.72
59329;BME280;45100;46.926;7.452;2023-05-01T00:06:07;95183.07;;;12.21;99.98
59329;BME280;45100;46.926;7.452;2023-05-01T00:08:37;95180.92;;;12.20;100.00
59329;BME280;45100;46.926;7.452;2023-05-01T00:11:12;95177.16;;;12.20;100.00
59329;BME280;45100;46.926;7.452;2023-05-01T00:13:39;95175.79;;;12.19;100.00
59329;BME280;45100;46.926;7.452;2023-05-01T00:16:10;95177.44;;;12.18;100.00
59329;BME280;45100;46.926;7.452;2023-05-01T00:18:40;95171.71;;;12.15;100.00
59329;BME280;45100;46.926;7.452;2023-05-01T00:21:10;95171.05;;;12.14;100.00
59329;BME280;45100;46.926;7.452;2023-05-01T00:23:41;95172.55;;;12.15;100.00
59329;BME280;45100;46.926;7.452;2023-05-01T00:26:12;95166.41;;;12.14;100.00
59329;BME280;45100;46.926;7.452;2023-05-01T00:28:43;95167.37;;;12.13;100.00
59329;BME280;45100;46.926;7.452;2023-05-01T00:31:14;95166.33;;;12.13;100.00
59329;BME280;45100;46.926;7.452;2023-05-01T00:33:44;95164.84;;;12.13;100.00
59329;BME280;45100;46.926;7.452;2023-05-01T00:36:15;95163.38;;;12.14;100.00
59329;BME280;45100;46.926;7.452;2023-05-01T00:38:46;95160.25;;;12.14;100.00
59329;BME280;45100;46.926;7.452;2023-05-01T00:41:17;95161.00;;;12.14;100.00
59329;BME280;45100;46.926;7.452;2023-05-01T00:43:48;95156.48;;;12.11;100.00
59329;BME280;45100;46.926;7.452;2023-05-01T00:46:19;95152.95;;;12.07;100.00
59329;BME280;45100;46.926;7.452;2023-05-01T00:48:50;95149.64;;;12.01;100.00
59329;BME280;45100;46.926;7.452;2023-05-01T00:51:19;95148.23;;;11.98;100.00
59329;BME280;45100;46.926;7.452;2023-05-01T00:53:50;95146.55;;;11.96;100.00
59329;BME280;45100;46.926;7.452;2023-05-01T00:56:21;95147.73;;;11.95;100.00
59329;BME280;45100;46.926;7.452;2023-05-01T00:58:53;95141.75;;;11.95;100.00
59329;BME280;45100;46.926;7.452;2023-05-01T01:01:22;95141.06;;;11.95;100.00
59329;BME280;45100;46.926;7.452;2023-05-01T01:03:54;95138.20;;;11.96;100.00
59329;BME280;45100;46.926;7.452;2023-05-01T01:06:57;95136.84;;;11.96;100.00
59329;BME280;45100;46.926;7.452;2023-05-01T01:11:42;95134.78;;;11.95;100.00
59329;BME280;45100;46.926;7.452;2023-05-01T01:14:01;95134.12;;;11.94;100.00
59329;BME280;45100;46.926;7.452;2023-05-01T01:21:30;95126.64;;;11.92;100.00
59329;BME280;45100;46.926;7.452;2023-05-01T01:24:20;95126.58;;;11.91;100.00
59329;BME280;45100;46.926;7.452;2023-05-01T01:34:06;95124.77;;;11.87;100.00
59329;BME280;45100;46.926;7.452;2023-05-01T01:39:09;95121.98;;;11.85;100.00
59329;BME280;45100;46.926;7.452;2023-05-01T01:41:34;95124.64;;;11.83;100.00
59329;BME280;45100;46.926;7.452;2023-05-01T01:44:08;95125.09;;;11.81;100.00
59329;BME280;45100;46.926;7.452;2023-05-01T01:46:36;95119.12;;;11.79;100.00
59329;BME280;45100;46.926;7.452;2023-05-01T01:49:08;95119.44;;;11.78;100.00
59329;BME280;45100;46.926;7.452;2023-05-01T01:51:36;95122.04;;;11.77;100.00
59329;BME280;45100;46.926;7.452;2023-05-01T01:54:07;95124.38;;;11.77;100.00
59329;BME280;45100;46.926;7.452;2023-05-01T01:56:37;95121.46;;;11.75;100.00
59329;BME280;45100;46.926;7.452;2023-05-01T01:59:08;95123.06;;;11.74;100.00
59329;BME280;45100;46.926;7.452;2023-05-01T02:01:39;95119.27;;;11.73;100.00
59329;BME280;45100;46.926;7.452;2023-05-01T02:04:10;95120.53;;;11.72;100.00
59329;BME280;45100;46.926;7.452;2023-05-01T02:06:40;95119.02;;;11.72;100.00
59329;BME280;45100;46.926;7.452;2023-05-01T02:09:10;95112.21;;;11.70;100.00
59329;BME280;45100;46.926;7.452;2023-05-01T02:11:40;95113.14;;;11.71;100.00
59329;BME280;45100;46.926;7.452;2023-05-01T02:16:46;95111.58;;;11.72;100.00
59329;BME280;45100;46.926;7.452;2023-05-01T02:19:17;95116.73;;;11.73;100.00
59329;BME280;45100;46.926;7.452;2023-05-01T02:24:25;95119.51;;;11.74;100.00
59329;BME280;45100;46.926;7.452;2023-05-01T02:26:57;95115.52;;;11.74;100.00
59329;BME280;45100;46.926;7.452;2023-05-01T02:29:23;95114.92;;;11.75;100.00
59329;BME280;45100;46.926;7.452;2023-05-01T02:31:54;95110.76;;;11.74;100.00
59329;BME280;45100;46.926;7.452;2023-05-01T02:34:24;95112.36;;;11.73;100.00
59329;BME280;45100;46.926;7.452;2023-05-01T02:36:55;95111.94;;;11.73;100.00
59329;BME280;45100;46.926;7.452;2023-05-01T02:39:24;95107.61;;;11.73;100.00
59329;BME280;45100;46.926;7.452;2023-05-01T02:41:57;95108.78;;;11.72;100.00
59329;BME280;45100;46.926;7.452;2023-05-01T02:44:26;95107.62;;;11.71;100.00
59329;BME280;45100;46.926;7.452;2023-05-01T02:46:57;95105.12;;;11.70;100.00
59329;BME280;45100;46.926;7.452;2023-05-01T02:49:28;95105.67;;;11.68;100.00
59329;BME280;45100;46.926;7.452;2023-05-01T02:54:31;95102.69;;;11.64;100.00
59329;BME280;45100;46.926;7.452;2023-05-01T02:57:06;95096.45;;;11.60;100.00
59329;BME280;45100;46.926;7.452;2023-05-01T02:59:36;95096.17;;;11.54;100.00
59329;BME280;45100;46.926;7.452;2023-05-01T03:02:07;95095.05;;;11.49;100.00
59329;BME280;45100;46.926;7.452;2023-05-01T03:04:38;95094.51;;;11.44;100.00
59329;BME280;45100;46.926;7.452;2023-05-01T03:07:09;95094.22;;;11.40;100.00
59329;BME280;45100;46.926;7.452;2023-05-01T03:09:40;95093.00;;;11.36;100.00
59329;BME280;45100;46.926;7.452;2023-05-01T03:12:10;95096.31;;;11.35;100.00
59329;BME280;45100;46.926;7.452;2023-05-01T03:14:41;95094.16;;;11.35;100.00
59329;BME280;45100;46.926;7.452;2023-05-01T03:17:12;95096.16;;;11.35;100.00
59329;BME280;45100;46.926;7.452;2023-05-01T03:19:42;95095.72;;;11.34;100.00
59329;BME280;45100;46.926;7.452;2023-05-01T03:22:13;95101.81;;;11.31;100.00
59329;BME280;45100;46.926;7.452;2023-05-01T03:24:44;95102.88;;;11.29;100.00
59329;BME280;45100;46.926;7.452;2023-05-01T03:27:15;95100.83;;;11.27;100.00
59329;BME280;45100;46.926;7.452;2023-05-01T03:29:46;95097.20;;;11.25;100.00
59329;BME280;45100;46.926;7.452;2023-05-01T03:32:17;95093.25;;;11.23;100.00
59329;BME280;45100;46.926;7.452;2023-05-01T03:34:47;95093.38;;;11.21;100.00
59329;BME280;45100;46.926;7.452;2023-05-01T03:37:18;95093.41;;;11.19;100.00
59329;BME280;45100;46.926;7.452;2023-05-01T03:39:48;95091.42;;;11.17;100.00
59329;BME280;45100;46.926;7.452;2023-05-01T03:42:19;95092.45;;;11.18;99.88
59329;BME280;45100;46.926;7.452;2023-05-01T03:44:50;95090.21;;;11.16;99.26
59329;BME280;45100;46.926;7.452;2023-05-01T03:47:21;95092.27;;;11.12;98.94
59329;BME280;45100;46.926;7.452;2023-05-01T03:49:52;95094.53;;;11.07;99.23
59329;BME280;45100;46.926;7.452;2023-05-01T03:52:21;95093.70;;;11.03;99.50
59329;BME280;45100;46.926;7.452;2023-05-01T03:54:53;95096.36;;;11.01;99.62
59329;BME280;45100;46.926;7.452;2023-05-01T03:57:23;95092.49;;;11.00;99.71
59329;BME280;45100;46.926;7.452;2023-05-01T03:59:52;95099.94;;;10.98;99.84
59329;BME280;45100;46.926;7.452;2023-05-01T04:02:23;95096.31;;;10.97;100.00
59329;BME280;45100;46.926;7.452;2023-05-01T04:04:54;95095.34;;;10.94;99.97
59329;BME280;45100;46.926;7.452;2023-05-01T04:07:25;95096.15;;;10.92;100.00
59329;BME280;45100;46.926;7.452;2023-05-01T04:09:55;95099.78;;;10.88;100.00
59329;BME280;45100;46.926;7.452;2023-05-01T04:12:26;95097.41;;;10.84;100.00
59329;BME280;45100;46.926;7.452;2023-05-01T04:14:57;95100.41;;;10.81;100.00
59329;BME280;45100;46.926;7.452;2023-05-01T04:17:28;95102.71;;;10.78;100.00
59329;BME280;45100;46.926;7.452;2023-05-01T04:20:00;95104.91;;;10.78;100.00
59329;BME280;45100;46.926;7.452;2023-05-01T04:22:29;95105.55;;;10.76;100.00
59329;BME280;45100;46.926;7.452;2023-05-01T04:24:59;95104.34;;;10.74;100.00
59329;BME280;45100;46.926;7.452;2023-05-01T04:27:30;95103.47;;;10.71;100.00
59329;BME280;45100;46.926;7.452;2023-05-01T04:30:01;95109.38;;;10.71;100.00
59329;BME280;45100;46.926;7.452;2023-05-01T04:32:32;95108.54;;;10.69;100.00
59329;BME280;45100;46.926;7.452;2023-05-01T04:35:05;95114.88;;;10.66;100.00
59329;BME280;45100;46.926;7.452;2023-05-01T04:37:33;95114.52;;;10.63;100.00
59329;BME280;45100;46.926;7.452;2023-05-01T04:40:04;95113.19;;;10.61;100.00
59329;BME280;45100;46.926;7.452;2023-05-01T04:42:34;95113.45;;;10.60;100.00
59329;BME280;45100;46.926;7.452;2023-05-01T04:45:05;95112.23;;;10.59;100.00
59329;BME280;45100;46.926;7.452;2023-05-01T04:47:35;95111.31;;;10.58;100.00
59329;BME280;45100;46.926;7.452;2023-05-01T04:50:06;95111.30;;;10.56;100.00
59329;BME280;45100;46.926;7.452;2023-05-01T04:52:37;95111.44;;;10.55;100.00
59329;BME280;45100;46.926;7.452;2023-05-01T04:55:08;95114.10;;;10.54;100.00
59329;BME280;45100;46.926;7.452;2023-05-01T04:57:37;95114.36;;;10.54;100.00
59329;BME280;45100;46.926;7.452;2023-05-01T05:00:08;95115.55;;;10.54;100.00
59329;BME280;45100;46.926;7.452;2023-05-01T05:02:38;95116.14;;;10.56;100.00
59329;BME280;45100;46.926;7.452;2023-05-01T05:05:09;95115.15;;;10.59;100.00
59329;BME280;45100;46.926;7.452;2023-05-01T05:07:40;95116.57;;;10.62;100.00
59329;BME280;45100;46.926;7.452;2023-05-01T05:10:10;95116.95;;;10.65;100.00
59329;BME280;45100;46.926;7.452;2023-05-01T05:12:40;95117.73;;;10.68;100.00
59329;BME280;45100;46.926;7.452;2023-05-01T05:15:11;95118.19;;;10.71;100.00
59329;BME280;45100;46.926;7.452;2023-05-01T05:17:42;95125.91;;;10.74;100.00
59329;BME280;45100;46.926;7.452;2023-05-01T05:20:12;95123.56;;;10.78;100.00
59329;BME280;45100;46.926;7.452;2023-05-01T05:22:43;95121.42;;;10.81;100.00
59329;BME280;45100;46.926;7.452;2023-05-01T05:25:14;95121.75;;;10.81;100.00
59329;BME280;45100;46.926;7.452;2023-05-01T05:27:45;95123.61;;;10.80;100.00
59329;BME280;45100;46.926;7.452;2023-05-01T05:30:16;95126.45;;;10.77;100.00
59329;BME280;45100;46.926;7.452;2023-05-01T05:32:46;95126.06;;;10.76;100.00
59329;BME280;45100;46.926;7.452;2023-05-01T05:35:16;95126.73;;;10.75;100.00
59329;BME280;45100;46.926;7.452;2023-05-01T05:37:47;95126.70;;;10.74;100.00
59329;BME280;45100;46.926;7.452;2023-05-01T05:40:19;95124.05;;;10.74;100.00
59329;BME280;45100;46.926;7.452;2023-05-01T05:42:48;95123.86;;;10.72;100.00
59329;BME280;45100;46.926;7.452;2023-05-01T05:47:52;95126.25;;;10.69;99.58
59329;BME280;45100;46.926;7.452;2023-05-01T05:50:22;95132.60;;;10.70;99.58
59329;BME280;45100;46.926;7.452;2023-05-01T05:52:52;95130.68;;;10.74;99.60
59329;BME280;45100;46.926;7.452;2023-05-01T05:55:23;95131.84;;;10.77;98.83
59329;BME280;45100;46.926;7.452;2023-05-01T05:57:54;95127.95;;;10.79;98.17
59329;BME280;45100;46.926;7.452;2023-05-01T06:00:25;95129.11;;;10.80;97.37
59329;BME280;45100;46.926;7.452;2023-05-01T06:02:56;95131.37;;;10.80;96.97
59329;BME280;45100;46.926;7.452;2023-05-01T06:05:26;95129.81;;;10.80;96.73
59329;BME280;45100;46.926;7.452;2023-05-01T06:10:29;95132.35;;;10.81;95.94
59329;BME280;45100;46.926;7.452;2023-05-01T06:12:59;95133.57;;;10.82;95.92
59329;BME280;45100;46.926;7.452;2023-05-01T06:15:29;95132.36;;;10.83;95.58
59329;BME280;45100;46.926;7.452;2023-05-01T06:18:00;95129.43;;;10.82;95.21
59329;BME280;45100;46.926;7.452;2023-05-01T06:20:31;95130.17;;;10.79;94.62
59329;BME280;45100;46.926;7.452;2023-05-01T06:23:02;95135.23;;;10.77;94.09
59329;BME280;45100;46.926;7.452;2023-05-01T06:25:32;95133.91;;;10.75;94.05
59329;BME280;45100;46.926;7.452;2023-05-01T06:28:04;95133.49;;;10.74;93.99
59329;BME280;45100;46.926;7.452;2023-05-01T06:30:33;95133.91;;;10.74;93.82
59329;BME280;45100;46.926;7.452;2023-05-01T06:33:04;95132.44;;;10.73;93.78
59329;BME280;45100;46.926;7.452;2023-05-01T06:35:37;95132.38;;;10.73;94.12
59329;BME280;45100;46.926;7.452;2023-05-01T06:38:05;95137.30;;;10.72;94.11
59329;BME280;45100;46.926;7.452;2023-05-01T06:40:36;95135.00;;;10.70;93.88
59329;BME280;45100;46.926;7.452;2023-05-01T06:43:07;95132.91;;;10.68;93.97
59329;BME280;45100;46.926;7.452;2023-05-01T06:45:40;95136.03;;;10.70;94.24
59329;BME280;45100;46.926;7.452;2023-05-01T06:48:07;95137.05;;;10.72;94.03
59329;BME280;45100;46.926;7.452;2023-05-01T06:50:38;95137.61;;;10.73;93.93
59329;BME280;45100;46.926;7.452;2023-05-01T06:53:09;95140.69;;;10.75;93.81
59329;BME280;45100;46.926;7.452;2023-05-01T06:55:39;95134.41;;;10.76;93.70
59329;BME280;45100;46.926;7.452;2023-05-01T06:58:10;95138.90;;;10.77;93.98
59329;BME280;45100;46.926;7.452;2023-05-01T07:00:41;95142.65;;;10.76;94.15
59329;BME280;45100;46.926;7.452;2023-05-01T07:03:12;95147.31;;;10.75;94.18
59329;BME280;45100;46.926;7.452;2023-05-01T07:05:42;95146.70;;;10.75;94.42
59329;BME280;45100;46.926;7.452;2023-05-01T07:08:13;95148.20;;;10.72;94.38
59329;BME280;45100;46.926;7.452;2023-05-01T07:10:43;95144.52;;;10.71;94.79
59329;BME280;45100;46.926;7.452;2023-05-01T07:13:15;95143.85;;;10.70;95.04
59329;BME280;45100;46.926;7.452;2023-05-01T07:15:45;95143.69;;;10.70;95.21
59329;BME280;45100;46.926;7.452;2023-05-01T07:18:16;95144.17;;;10.70;95.37
59329;BME280;45100;46.926;7.452;2023-05-01T07:20:46;95153.91;;;10.72;95.68
59329;BME280;45100;46.926;7.452;2023-05-01T07:23:17;95149.86;;;10.76;95.72
59329;BME280;45100;46.926;7.452;2023-05-01T07:25:48;95154.19;;;10.79;95.23
59329;BME280;45100;46.926;7.452;2023-05-01T07:28:21;95154.22;;;10.82;95.15
59329;BME280;45100;46.926;7.452;2023-05-01T07:30:49;95154.57;;;10.86;95.04
59329;BME280;45100;46.926;7.452;2023-05-01T07:33:20;95160.56;;;10.91;94.94
59329;BME280;45100;46.926;7.452;2023-05-01T07:35:51;95156.38;;;10.97;94.75
59329;BME280;45100;46.926;7.452;2023-05-01T07:38:21;95156.61;;;11.02;93.98
59329;BME280;45100;46.926;7.452;2023-05-01T07:40:52;95155.53;;;11.09;94.18
59329;BME280;45100;46.926;7.452;2023-05-01T07:43:23;95158.42;;;11.15;93.58
59329;BME280;45100;46.926;7.452;2023-05-01T07:45:55;95156.21;;;11.19;92.86
59329;BME280;45100;46.926;7.452;2023-05-01T07:48:25;95158.66;;;11.23;92.48
59329;BME280;45100;46.926;7.452;2023-05-01T07:50:56;95157.61;;;11.27;92.15
59329;BME280;45100;46.926;7.452;2023-05-01T07:53:26;95155.98;;;11.29;91.51
59329;BME280;45100;46.926;7.452;2023-05-01T07:56:06;95157.41;;;11.32;91.39
59329;BME280;45100;46.926;7.452;2023-05-01T07:58:26;95154.39;;;11.35;91.57
59329;BME280;45100;46.926;7.452;2023-05-01T08:00:57;95155.42;;;11.37;91.38
59329;BME280;45100;46.926;7.452;2023-05-01T08:03:28;95155.71;;;11.40;91.06
59329;BME280;45100;46.926;7.452;2023-05-01T08:05:58;95158.15;;;11.44;91.37
59329;BME280;45100;46.926;7.452;2023-05-01T08:08:29;95154.45;;;11.50;91.20
59329;BME280;45100;46.926;7.452;2023-05-01T08:10:59;95156.08;;;11.56;91.08
59329;BME280;45100;46.926;7.452;2023-05-01T08:13:30;95157.80;;;11.63;90.76
59329;BME280;45100;46.926;7.452;2023-05-01T08:16:01;95156.49;;;11.68;90.38
59329;BME280;45100;46.926;7.452;2023-05-01T08:18:31;95154.65;;;11.72;90.11
59329;BME280;45100;46.926;7.452;2023-05-01T08:21:01;95156.89;;;11.74;89.29
59329;BME280;45100;46.926;7.452;2023-05-01T08:23:32;95154.41;;;11.76;89.14
59329;BME280;45100;46.926;7.452;2023-05-01T08:26:03;95159.59;;;11.77;89.10
59329;BME280;45100;46.926;7.452;2023-05-01T08:28:34;95161.61;;;11.77;88.95
59329;BME280;45100;46.926;7.452;2023-05-01T08:31:03;95164.82;;;11.77;89.12
59329;BME280;45100;46.926;7.452;2023-05-01T08:33:34;95169.97;;;11.78;89.07
59329;BME280;45100;46.926;7.452;2023-05-01T08:36:05;95169.09;;;11.79;89.01
59329;BME280;45100;46.926;7.452;2023-05-01T08:41:09;95170.92;;;11.84;89.48
59329;BME280;45100;46.926;7.452;2023-05-01T08:43:41;95172.17;;;11.91;89.71
59329;BME280;45100;46.926;7.452;2023-05-01T08:48:44;95172.38;;;12.04;88.98
59329;BME280;45100;46.926;7.452;2023-05-01T08:51:15;95175.34;;;12.10;88.45
59329;BME280;45100;46.926;7.452;2023-05-01T08:53:45;95178.16;;;12.17;88.84
59329;BME280;45100;46.926;7.452;2023-05-01T08:56:15;95183.03;;;12.26;89.14
59329;BME280;45100;46.926;7.452;2023-05-01T09:01:19;95190.11;;;12.48;89.69
59329;BME280;45100;46.926;7.452;2023-05-01T09:03:49;95197.48;;;12.53;88.64
59329;BME280;45100;46.926;7.452;2023-05-01T09:06:19;95203.81;;;12.51;86.39
59329;BME280;45100;46.926;7.452;2023-05-01T09:08:49;95208.01;;;12.40;86.21
59329;BME280;45100;46.926;7.452;2023-05-01T09:11:22;95209.58;;;12.27;87.07
59329;BME280;45100;46.926;7.452;2023-05-01T09:13:51;95209.53;;;12.16;88.18
59329;BME280;45100;46.926;7.452;2023-05-01T09:16:21;95208.81;;;12.05;88.50
59329;BME280;45100;46.926;7.452;2023-05-01T09:18:52;95212.19;;;11.96;89.72
59329;BME280;45100;46.926;7.452;2023-05-01T09:21:28;95210.28;;;11.89;90.17
59329;BME280;45100;46.926;7.452;2023-05-01T09:23:53;95211.72;;;11.86;90.73
59329;BME280;45100;46.926;7.452;2023-05-01T09:26:23;95207.90;;;11.86;91.04
59329;BME280;45100;46.926;7.452;2023-05-01T09:28:57;95208.33;;;11.89;91.21
59329;BME280;45100;46.926;7.452;2023-05-01T09:31:28;95207.21;;;11.95;90.76
59329;BME280;45100;46.926;7.452;2023-05-01T09:33:57;95205.77;;;12.01;90.81
59329;BME280;45100;46.926;7.452;2023-05-01T09:36:26;95204.95;;;12.06;90.55
59329;BME280;45100;46.926;7.452;2023-05-01T09:38:56;95204.97;;;12.09;90.53
59329;BME280;45100;46.926;7.452;2023-05-01T09:41:26;95203.62;;;12.12;90.45
59329;BME280;45100;46.926;7.452;2023-05-01T09:43:57;95204.00;;;12.15;90.35
59329;BME280;45100;46.926;7.452;2023-05-01T09:46:27;95204.08;;;12.19;90.97
59329;BME280;45100;46.926;7.452;2023-05-01T09:48:59;95209.17;;;12.22;90.68
59329;BME280;45100;46.926;7.452;2023-05-01T09:51:30;95212.84;;;12.26;90.88
59329;BME280;45100;46.926;7.452;2023-05-01T09:54:00;95211.86;;;12.30;91.14
59329;BME280;45100;46.926;7.452;2023-05-01T09:56:31;95210.81;;;12.37;91.26
59329;BME280;45100;46.926;7.452;2023-05-01T09:59:17;95216.25;;;12.45;91.21
59329;BME280;45100;46.926;7.452;2023-05-01T10:01:42;95217.12;;;12.52;91.24
59329;BME280;45100;46.926;7.452;2023-05-01T10:04:01;95215.02;;;12.55;91.06
59329;BME280;45100;46.926;7.452;2023-05-01T10:06:31;95216.27;;;12.55;89.78
59329;BME280;45100;46.926;7.452;2023-05-01T10:09:03;95215.43;;;12.54;90.74
59329;BME280;45100;46.926;7.452;2023-05-01T10:11:52;95216.05;;;12.53;91.46
59329;BME280;45100;46.926;7.452;2023-05-01T10:14:09;95218.77;;;12.54;91.51
59329;BME280;45100;46.926;7.452;2023-05-01T10:16:33;95219.30;;;12.53;91.13
59329;BME280;45100;46.926;7.452;2023-05-01T10:19:04;95221.10;;;12.54;91.49
59329;BME280;45100;46.926;7.452;2023-05-01T10:21:34;95221.75;;;12.54;91.80
59329;BME280;45100;46.926;7.452;2023-05-01T10:24:06;95223.00;;;12.51;90.90
59329;BME280;45100;46.926;7.452;2023-05-01T10:26:35;95220.42;;;12.50;91.48
59329;BME280;45100;46.926;7.452;2023-05-01T10:29:04;95224.79;;;12.48;91.28
59329;BME280;45100;46.926;7.452;2023-05-01T10:31:35;95221.94;;;12.47;91.32
59329;BME280;45100;46.926;7.452;2023-05-01T10:34:05;95226.34;;;12.45;90.15
59329;BME280;45100;46.926;7.452;2023-05-01T10:36:40;95229.42;;;12.45;89.22
59329;BME280;45100;46.926;7.452;2023-05-01T10:39:32;95225.34;;;12.49;88.86
59329;BME280;45100;46.926;7.452;2023-05-01T10:41:59;95227.77;;;12.55;89.24
59329;BME280;45100;46.926;7.452;2023-05-01T10:44:21;95228.33;;;12.61;89.33
59329;BME280;45100;46.926;7.452;2023-05-01T10:49:12;95231.81;;;12.66;87.21
59329;BME280;45100;46.926;7.452;2023-05-01T10:52:00;95231.63;;;12.60;87.13
59329;BME280;45100;46.926;7.452;2023-05-01T10:56:42;95231.17;;;12.43;88.79
59329;BME280;45100;46.926;7.452;2023-05-01T10:59:12;95230.79;;;12.34;89.44
59329;BME280;45100;46.926;7.452;2023-05-01T11:01:45;95228.92;;;12.27;90.42
59329;BME280;45100;46.926;7.452;2023-05-01T11:09:37;95230.86;;;12.01;91.26
59329;BME280;45100;46.926;7.452;2023-05-01T11:11:44;95233.83;;;11.98;91.65
59329;BME280;45100;46.926;7.452;2023-05-01T11:14:15;95238.99;;;11.97;92.42
59329;BME280;45100;46.926;7.452;2023-05-01T11:16:49;95240.25;;;11.95;91.50
59329;BME280;45100;46.926;7.452;2023-05-01T11:21:46;95237.89;;;11.96;93.10
59329;BME280;45100;46.926;7.452;2023-05-01T11:24:20;95238.74;;;11.98;93.50
59329;BME280;45100;46.926;7.452;2023-05-01T11:26:47;95235.95;;;12.01;94.41
59329;BME280;45100;46.926;7.452;2023-05-01T11:29:17;95236.77;;;12.01;94.00
59329;BME280;45100;46.926;7.452;2023-05-01T11:31:48;95240.65;;;12.01;94.33
59329;BME280;45100;46.926;7.452;2023-05-01T11:34:19;95236.19;;;12.02;94.59
59329;BME280;45100;46.926;7.452;2023-05-01T11:36:51;95235.02;;;12.03;94.87
59329;BME280;45100;46.926;7.452;2023-05-01T11:39:20;95237.42;;;12.02;94.63
59329;BME280;45100;46.926;7.452;2023-05-01T11:42:07;95234.05;;;12.03;95.22
59329;BME280;45100;46.926;7.452;2023-05-01T11:44:20;95238.62;;;12.07;95.76
59329;BME280;45100;46.926;7.452;2023-05-01T11:46:55;95241.31;;;12.07;95.33
59329;BME280;45100;46.926;7.452;2023-05-01T11:49:27;95239.61;;;12.03;95.73
59329;BME280;45100;46.926;7.452;2023-05-01T11:51:55;95237.08;;;12.01;96.33
59329;BME280;45100;46.926;7.452;2023-05-01T11:54:22;95245.03;;;12.02;96.92
59329;BME280;45100;46.926;7.452;2023-05-01T11:56:57;95239.95;;;12.02;96.54
59329;BME280;45100;46.926;7.452;2023-05-01T11:59:23;95245.17;;;12.01;95.67
59329;BME280;45100;46.926;7.452;2023-05-01T12:01:54;95245.05;;;11.98;95.46
59329;BME280;45100;46.926;7.452;2023-05-01T12:04:26;95239.83;;;11.95;95.56
59329;BME280;45100;46.926;7.452;2023-05-01T12:06:55;95238.79;;;11.93;96.35
59329;BME280;45100;46.926;7.452;2023-05-01T12:09:27;95238.14;;;11.95;97.07
59329;BME280;45100;46.926;7.452;2023-05-01T12:11:58;95238.00;;;11.96;96.75
59329;BME280;45100;46.926;7.452;2023-05-01T12:14:27;95237.73;;;11.94;96.87
59329;BME280;45100;46.926;7.452;2023-05-01T12:19:31;95236.45;;;11.89;97.34
59329;BME280;45100;46.926;7.452;2023-05-01T12:22:08;95239.16;;;11.87;97.76
59329;BME280;45100;46.926;7.452;2023-05-01T12:24:32;95242.30;;;11.90;98.02
59329;BME280;45100;46.926;7.452;2023-05-01T12:27:03;95246.00;;;11.94;97.95
59329;BME280;45100;46.926;7.452;2023-05-01T12:29:40;95252.43;;;11.97;97.90
59329;BME280;45100;46.926;7.452;2023-05-01T12:32:04;95254.67;;;12.01;98.13
59329;BME280;45100;46.926;7.452;2023-05-01T12:37:09;95255.86;;;12.09;98.52
59329;BME280;45100;46.926;7.452;2023-05-01T12:39:42;95255.41;;;12.13;98.01
59329;BME280;45100;46.926;7.452;2023-05-01T12:42:13;95260.81;;;12.13;97.71
59329;BME280;45100;46.926;7.452;2023-05-01T12:44:41;95256.93;;;12.13;97.87
59329;BME280;45100;46.926;7.452;2023-05-01T12:47:11;95257.47;;;12.16;97.75
59329;BME280;45100;46.926;7.452;2023-05-01T12:49:41;95252.59;;;12.18;97.38
59329;BME280;45100;46.926;7.452;2023-05-01T12:57:21;95242.55;;;12.10;96.88
59329;BME280;45100;46.926;7.452;2023-05-01T12:59:59;95241.11;;;12.03;96.71
59329;BME280;45100;46.926;7.452;2023-05-01T13:02:30;95246.23;;;11.97;96.59
59329;BME280;45100;46.926;7.452;2023-05-01T13:05:10;95242.86;;;11.94;97.11
59329;BME280;45100;46.926;7.452;2023-05-01T13:07:22;95248.73;;;11.95;97.75
59329;BME280;45100;46.926;7.452;2023-05-01T13:09:54;95244.53;;;11.99;98.20
59329;BME280;45100;46.926;7.452;2023-05-01T13:12:25;95243.54;;;12.03;98.00
59329;BME280;45100;46.926;7.452;2023-05-01T13:14:54;95243.30;;;12.08;98.17
59329;BME280;45100;46.926;7.452;2023-05-01T13:17:29;95247.83;;;12.15;97.98
59329;BME280;45100;46.926;7.452;2023-05-01T13:19:56;95247.30;;;12.20;97.88
59329;BME280;45100;46.926;7.452;2023-05-01T13:22:35;95241.96;;;12.26;97.75
59329;BME280;45100;46.926;7.452;2023-05-01T13:24:55;95240.53;;;12.33;97.53
59329;BME280;45100;46.926;7.452;2023-05-01T13:27:27;95237.64;;;12.37;96.84
59329;BME280;45100;46.926;7.452;2023-05-01T13:29:59;95234.99;;;12.41;94.89
59329;BME280;45100;46.926;7.452;2023-05-01T13:32:27;95231.44;;;12.38;92.41
59329;BME280;45100;46.926;7.452;2023-05-01T13:35:01;95228.34;;;12.33;91.88
59329;BME280;45100;46.926;7.452;2023-05-01T13:37:28;95233.71;;;12.30;92.83
59329;BME280;45100;46.926;7.452;2023-05-01T13:39:59;95238.38;;;12.28;93.61
59329;BME280;45100;46.926;7.452;2023-05-01T13:45:06;95240.05;;;12.28;92.30
59329;BME280;45100;46.926;7.452;2023-05-01T13:47:35;95241.16;;;12.28;91.82
59329;BME280;45100;46.926;7.452;2023-05-01T13:50:06;95237.61;;;12.27;91.23
59329;BME280;45100;46.926;7.452;2023-05-01T13:52:40;95239.25;;;12.25;91.53
59329;BME280;45100;46.926;7.452;2023-05-01T13:55:05;95239.96;;;12.23;91.11
59329;BME280;45100;46.926;7.452;2023-05-01T13:57:39;95244.20;;;12.22;88.79
59329;BME280;45100;46.926;7.452;2023-05-01T14:00:13;95241.89;;;12.18;87.75
59329;BME280;45100;46.926;7.452;2023-05-01T14:02:42;95242.23;;;12.15;87.10
59329;BME280;45100;46.926;7.452;2023-05-01T14:05:09;95244.82;;;12.12;86.94
59329;BME280;45100;46.926;7.452;2023-05-01T14:07:44;95249.03;;;12.10;86.50
59329;BME280;45100;46.926;7.452;2023-05-01T14:10:08;95246.78;;;12.11;87.38
59329;BME280;45100;46.926;7.452;2023-05-01T14:12:39;95244.27;;;12.15;87.60
59329;BME280;45100;46.926;7.452;2023-05-01T14:15:11;95235.88;;;12.19;88.34
59329;BME280;45100;46.926;7.452;2023-05-01T14:17:40;95235.27;;;12.23;88.13